Saint Jacob, Illinois
Current Conditions -  °F | °C
As of 7:59 PM on Monday 22 Dec 2014 (Local Time) from KBLV Reporting Station
Drizzle Drizzle  
Wind Chill: 50°   Ceiling: 500
Heat Index: 50°   Visibility: 9mi
Dew Point: 50°   Wind: 6mph
Humidity: 100%   Direction: 140°SE
Pressure: 29.53"   Gusts: NA
Location:  38.71°N, 89.77°W
Report Text: KBLV 230159Z AUTO 14005KT 9SM -DZ OVC005 10/10 A2953 RMK AO2
Loading
Personal Weather Stations






























Interactive Weather Map New forecast layout! Learn more

10-Day Weather Forecast

Advertisements
Track Severe Weather on mobile